Latest Coastal Weather Observations for Hogan Island

IDV60701

Issued at 6:31 am EST Thursday 29 September 2016 (issued every 10 minutes, with the page automatically refreshed every 10 minutes)

About coastal observations | Map of coastal stations | Coastal observations for VIC | Marine services | Other Formats
Station Details ID: 200838 Name: HOGAN ISLAND Lat: -39.22 Lon: 146.98 Height: 116.0 m
Data from the previous 72 hours. | See also: Recent months at Hogan Island
Date/Time
EST
Temp
°C
Wind Pressure Rain since
9am
mm
Weather Cloud Vis
km
Sea
Height
m
Swell
Dir  Spd
kts
Gust
kts
hPa Trend Height
m
Period
s
Dir
29/06:30am 12.2 ENE 37 44 990.4 - 1.0 - - - - - - -
29/06:00am 12.3 NE 30 36 991.3 - 0.2 - - - - - - -
29/05:30am 12.3 NE 29 34 991.7 - 0.0 - - - - - - -
29/05:00am 12.8 NE 32 38 992.4 - 0.0 - - - - - - -
29/04:30am 12.8 NE 31 37 992.8 - 0.0 - - - - - - -
29/04:00am 12.7 NE 31 37 993.1 - 0.0 - - - - - - -
29/03:30am 12.6 NE 31 37 993.6 - 0.0 - - - - - - -
29/03:00am 12.6 ENE 32 39 994.3 - 0.0 - - - - - - -
29/02:30am 12.4 ENE 28 34 994.6 - 0.0 - - - - - - -
29/02:00am 12.5 ENE 29 35 996.0 - 0.0 - - - - - - -
29/01:30am 12.5 ENE 30 36 996.7 - 0.0 - - - - - - -
29/01:00am 12.5 ENE 30 36 997.1 - 0.0 - - - - - - -
29/12:30am 12.5 ENE 32 38 997.8 - 0.0 - - - - - - -
29/12:00am 12.6 ENE 33 39 998.6 - 0.0 - - - - - - -
 
Date/Time
EST
Temp
°C
Wind Pressure Rain since
9am
mm
Weather Cloud Vis
km
Sea
Height
m
Swell
Dir  Spd
kts
Gust
kts
hPa Trend Height
m
Period
s
Dir
28/11:30pm 12.6 ENE 38 43 998.9 - 0.0 - - - - - - -
28/11:00pm 12.7 ENE 38 43 999.2 - 0.0 - - - - - - -
28/10:30pm 12.7 ENE 33 38 1000.2 - 0.0 - - - - - - -
28/10:00pm 12.5 ENE 31 37 1001.0 - 0.0 - - - - - - -
28/09:30pm 12.4 ENE 30 35 1001.7 - 0.0 - - - - - - -
28/09:00pm 12.4 ENE 30 34 1002.3 - 0.0 - - - - - - -
28/08:30pm 12.3 ENE 29 33 1002.8 - 0.0 - - - - - - -
28/08:00pm 12.2 ENE 29 35 1003.2 - 0.0 - - - - - - -
28/07:30pm 12.1 ENE 28 32 1003.4 - 0.0 - - - - - - -
28/07:00pm 12.0 ENE 25 29 1003.9 - 0.0 - - - - - - -
28/06:30pm 12.0 ENE 26 29 1004.2 - 0.0 - - - - - - -
28/06:00pm 11.8 ENE 24 28 1004.8 - 0.0 - - - - - - -
28/05:30pm 12.0 ENE 22 26 1004.3 - 0.0 - - - - - - -
28/05:00pm 12.1 ENE 21 24 1004.4 - 0.0 - - - - - - -
28/04:30pm 12.6 ENE 20 24 1004.9 - 0.0 - - - - - - -
28/04:00pm 13.0 ENE 16 18 1005.6 - 0.0 - - - - - - -
28/03:30pm 13.9 ENE 16 18 1006.1 - 0.0 - - - - - - -
28/03:00pm 14.3 ENE 14 16 1006.8 - 0.0 - - - - - - -
28/02:30pm 14.2 ENE 11 13 1006.9 - 0.0 - - - - - - -
28/02:00pm 15.4 NE 10 12 1008.0 - 0.0 - - - - - - -
28/01:30pm 15.6 N 8 10 1009.0 - 0.0 - - - - - - -
28/01:00pm 15.3 NNW 6 9 1009.6 - 0.0 - - - - - - -
28/12:30pm 14.8 WNW 7 8 1009.9 - 0.0 - - - - - - -
28/12:00pm 14.2 NW 7 11 1010.3 - 0.0 - - - - - - -
28/11:30am 14.4 NW 8 11 1010.5 - 0.0 - - - - - - -
28/11:00am 14.5 NW 10 11 1010.9 - 0.0 - - - - - - -
28/10:30am 14.4 NW 11 14 1011.1 - 0.0 - - - - - - -
28/10:00am 13.7 NW 11 14 1011.4 - 0.0 - - - - - - -
28/09:30am 12.9 NW 13 15 1011.7 - 0.0 - - - - - - -
28/09:00am 12.8 WNW 14 17 1011.9 - 0.2 - - - - - - -
28/08:30am 12.4 NW 13 16 1011.8 - 0.2 - - - - - - -
28/08:00am 11.7 WNW 15 19 1012.0 - 0.2 - - - - - - -
28/07:30am 11.4 NW 16 21 1012.0 - 0.2 - - - - - - -
28/07:00am 11.3 WNW 17 20 1011.8 - 0.2 - - - - - - -
28/06:30am 11.3 WNW 17 21 1011.6 - 0.2 - - - - - - -
28/06:00am 10.9 WNW 19 22 1011.5 - 0.2 - - - - - - -
28/05:30am 10.7 WNW 20 22 1011.4 - 0.2 - - - - - - -
28/05:00am 10.6 WNW 18 22 1011.3 - 0.2 - - - - - - -
28/04:30am 10.7 WNW 20 23 1011.0 - 0.2 - - - - - - -
28/04:00am 10.6 WNW 20 23 1010.9 - 0.2 - - - - - - -
28/03:30am 10.5 WNW 17 20 1011.1 - 0.2 - - - - - - -
28/03:00am 10.5 WNW 16 17 1011.2 - 0.2 - - - - - - -
28/02:30am 10.6 WNW 13 16 1011.1 - 0.2 - - - - - - -
28/02:00am 10.5 NW 12 15 1011.2 - 0.2 - - - - - - -
28/01:30am 10.6 WNW 14 16 1011.4 - 0.2 - - - - - - -
28/01:00am 10.8 W 16 19 1011.5 - 0.2 - - - - - - -
28/12:30am 10.9 WNW 17 19 1011.5 - 0.2 - - - - - - -
28/12:00am 11.0 W 20 23 1011.6 - 0.2 - - - - - - -
 
Date/Time
EST
Temp
°C
Wind Pressure Rain since
9am
mm
Weather Cloud Vis
km
Sea
Height
m
Swell
Dir  Spd
kts
Gust
kts
hPa Trend Height
m
Period
s
Dir
27/11:30pm 10.8 W 20 23 1011.4 - 0.2 - - - - - - -
27/11:00pm 10.8 W 20 22 1011.4 - 0.2 - - - - - - -
27/10:30pm 10.7 W 20 23 1011.4 - 0.2 - - - - - - -
27/10:00pm 10.6 W 23 26 1011.3 - 0.2 - - - - - - -
27/09:30pm 10.6 W 24 27 1011.4 - 0.2 - - - - - - -
27/09:00pm 10.5 W 23 26 1011.5 - 0.2 - - - - - - -
27/08:30pm 10.5 W 26 30 1011.3 - 0.2 - - - - - - -
27/08:00pm 10.4 W 26 32 1011.1 - 0.2 - - - - - - -
27/07:30pm 10.0 W 30 33 1011.0 - 0.2 - - - - - - -
27/07:00pm 10.7 W 27 32 1010.9 - 0.0 - - - - - - -
27/06:30pm 11.0 W 26 30 1010.5 - 0.0 - - - - - - -
27/06:00pm 11.1 W 22 26 1010.6 - 0.0 - - - - - - -
27/05:30pm 11.2 W 22 25 1010.2 - 0.0 - - - - - - -
27/05:00pm 11.9 W 22 25 1010.0 - 0.0 - - - - - - -
27/04:30pm 12.2 W 24 27 1009.7 - 0.0 - - - - - - -
27/04:00pm 12.4 W 23 26 1009.6 - 0.0 - - - - - - -
27/03:30pm 12.4 W 22 25 1009.4 - 0.0 - - - - - - -
27/03:00pm 12.5 W 25 28 1009.4 - 0.0 - - - - - - -
27/02:30pm 12.4 W 23 28 1009.1 - 0.0 - - - - - - -
27/02:00pm 14.1 W 20 24 1009.3 - 0.0 - - - - - - -
27/01:30pm 13.8 W 22 25 1009.4 - 0.0 - - - - - - -
27/01:00pm 12.4 W 21 28 1009.2 - 0.0 - - - - - - -
27/12:30pm 13.5 W 21 25 1009.3 - 0.0 - - - - - - -
27/12:00pm 13.2 W 23 27 1009.3 - 0.0 - - - - - - -
27/11:30am 11.3 W 23 27 1009.1 - 0.0 - - - - - - -
27/11:00am 11.7 W 22 25 1009.3 - 0.0 - - - - - - -
27/10:30am 11.2 W 24 27 1009.3 - 0.0 - - - - - - -
27/10:00am 11.4 W 21 24 1009.1 - 0.0 - - - - - - -
27/09:30am 10.3 W 20 24 1009.0 - 0.0 - - - - - - -
27/09:00am 10.8 W 17 19 1009.0 - 2.6 - - - - - - -
27/08:30am 9.9 W 21 23 1008.4 - 2.6 - - - - - - -
27/08:00am 9.7 W 20 24 1008.1 - 2.6 - - - - - - -
27/07:30am 9.2 W 21 24 1007.9 - 2.6 - - - - - - -
27/07:00am 9.1 W 20 23 1007.7 - 2.6 - - - - - - -
27/06:30am 8.6 W 19 22 1007.6 - 2.6 - - - - - - -
27/06:00am 8.7 W 18 22 1007.6 - 2.6 - - - - - - -
27/05:30am 8.7 W 18 21 1007.4 - 2.6 - - - - - - -
27/05:00am 8.3 W 15 18 1007.3 - 2.6 - - - - - - -
27/04:30am 8.1 W 11 13 1007.3 - 2.6 - - - - - - -
27/04:00am 8.2 W 16 18 1007.1 - 2.6 - - - - - - -
27/03:30am 8.2 W 18 21 1007.0 - 2.4 - - - - - - -
27/03:00am 8.5 W 16 19 1007.2 - 2.0 - - - - - - -
27/02:30am 8.5 W 20 24 1007.3 - 1.8 - - - - - - -
27/02:00am 9.3 WNW 24 28 1007.3 - 0.8 - - - - - - -
27/01:46am 9.6 WNW 20 25 1007.4 - 0.6 - - - - - - -
27/01:30am 10.0 NNW 11 17 1007.9 - 0.6 - - - - - - -
27/01:00am 10.5 N 14 19 1008.2 - 0.6 - - - - - - -
27/12:30am 10.2 N 13 16 1008.5 - 0.4 - - - - - - -
27/12:00am 10.5 N 14 17 1008.9 - 0.2 - - - - - - -
 
Date/Time
EST
Temp
°C
Wind Pressure Rain since
9am
mm
Weather Cloud Vis
km
Sea
Height
m
Swell
Dir  Spd
kts
Gust
kts
hPa Trend Height
m
Period
s
Dir
26/11:30pm 10.1 NNE 13 16 1008.7 - 0.0 - - - - - - -
26/11:00pm 10.3 NE 14 16 1008.9 - 0.0 - - - - - - -
26/10:30pm 9.9 NNE 15 18 1009.3 - 0.0 - - - - - - -
26/10:00pm 10.9 N 12 15 1009.9 - 0.0 - - - - - - -
26/09:30pm 10.3 N 11 13 1010.2 - 0.0 - - - - - - -
26/09:00pm 10.0 NNE 11 14 1010.1 - 0.0 - - - - - - -
26/08:30pm 10.1 NNE 13 15 1010.1 - 0.0 - - - - - - -
26/08:00pm 9.6 NNE 11 14 1010.2 - 0.0 - - - - - - -
26/07:30pm 9.3 NNE 10 11 1010.1 - 0.0 - - - - - - -
26/07:00pm 8.9 NE 9 10 1010.0 - 0.0 - - - - - - -
26/06:30pm 9.1 NE 6 8 1009.8 - 0.0 - - - - - - -
26/06:00pm 10.4 CALM 0 0 1009.9 - 0.0 - - - - - - -
26/05:30pm 11.5 CALM 0 0 1009.8 - 0.0 - - - - - - -
26/05:00pm 12.4 SSW 4 6 1009.7 - 0.0 - - - - - - -
26/04:30pm 11.8 W 4 6 1009.7 - 0.0 - - - - - - -
26/04:00pm 12.9 W 5 7 1009.8 - 0.0 - - - - - - -
26/03:30pm 13.1 WSW 5 8 1009.8 - 0.0 - - - - - - -
26/03:00pm 13.0 WSW 7 9 1010.1 - 0.0 - - - - - - -
26/02:30pm 13.9 WSW 6 7 1010.0 - 0.0 - - - - - - -
26/02:00pm 14.0 WSW 7 9 1010.2 - 0.0 - - - - - - -
26/01:30pm 12.7 WNW 8 9 1010.5 - 0.0 - - - - - - -
26/01:00pm 13.5 WNW 8 11 1010.7 - 0.0 - - - - - - -
26/12:30pm 13.6 WNW 10 13 1011.2 - 0.0 - - - - - - -
26/12:00pm 13.0 WNW 11 12 1011.6 - 0.0 - - - - - - -
26/11:30am 12.3 WNW 13 15 1011.6 - 0.0 - - - - - - -
26/11:00am 13.2 WNW 11 13 1011.7 - 0.0 - - - - - - -
26/10:30am 13.1 WNW 12 14 1011.8 - 0.0 - - - - - - -
26/10:00am 12.3 WNW 13 16 1012.1 - 0.0 - - - - - - -
26/09:30am 11.1 WNW 16 18 1012.2 - 0.0 - - - - - - -
26/09:00am 11.2 WNW 17 20 1012.3 - 0.0 - - - - - - -
26/08:30am 11.2 WNW 14 19 1012.3 - 0.0 - - - - - - -
26/08:00am 10.2 WNW 14 16 1012.2 - 0.0 - - - - - - -
26/07:30am 10.5 NW 12 16 1012.3 - 0.0 - - - - - - -
26/07:00am 10.5 NW 9 12 1012.3 - 0.0 - - - - - - -

Other Formats:

Comma delimited format used in spreadsheet applications
http://www.bom.gov.au/fwo/IDV60701/IDV60701.94949.axf

JavaScript Object Notation format (JSON) in row-major order
http://www.bom.gov.au/fwo/IDV60701/IDV60701.94949.json